sensor_id;sensor_type;location;lat;lon;timestamp;pressure;altitude;pressure_sealevel;temperature;humidity
73240;BME280;61452;40.054;4.110;2023-09-12T00:02:27;101540.00;;;25.83;100.00
73240;BME280;61452;40.054;4.110;2023-09-12T00:07:31;101534.78;;;25.82;100.00
73240;BME280;61452;40.054;4.110;2023-09-12T00:12:33;101535.75;;;25.81;100.00
73240;BME280;61452;40.054;4.110;2023-09-12T00:17:35;101532.09;;;25.82;100.00
73240;BME280;61452;40.054;4.110;2023-09-12T00:22:37;101526.84;;;25.80;100.00
73240;BME280;61452;40.054;4.110;2023-09-12T00:27:39;101523.16;;;25.81;100.00
73240;BME280;61452;40.054;4.110;2023-09-12T00:32:41;101515.28;;;25.80;100.00
73240;BME280;61452;40.054;4.110;2023-09-12T00:37:43;101502.00;;;25.78;100.00
73240;BME280;61452;40.054;4.110;2023-09-12T00:42:46;101504.81;;;25.76;100.00
73240;BME280;61452;40.054;4.110;2023-09-12T00:47:49;101496.47;;;25.80;100.00
73240;BME280;61452;40.054;4.110;2023-09-12T00:52:53;101495.06;;;25.75;100.00
73240;BME280;61452;40.054;4.110;2023-09-12T00:57:55;101492.25;;;25.77;100.00
73240;BME280;61452;40.054;4.110;2023-09-12T01:02:58;101495.91;;;25.76;100.00
73240;BME280;61452;40.054;4.110;2023-09-12T01:08:00;101494.22;;;25.75;100.00
73240;BME280;61452;40.054;4.110;2023-09-12T01:13:03;101487.00;;;25.75;100.00
73240;BME280;61452;40.054;4.110;2023-09-12T01:18:06;101484.47;;;25.74;100.00
73240;BME280;61452;40.054;4.110;2023-09-12T01:23:33;101488.00;;;25.74;100.00
73240;BME280;61452;40.054;4.110;2023-09-12T01:28:39;101472.91;;;25.73;100.00
73240;BME280;61452;40.054;4.110;2023-09-12T01:33:45;101482.63;;;25.74;100.00
73240;BME280;61452;40.054;4.110;2023-09-12T01:38:47;101493.56;;;25.73;100.00
73240;BME280;61452;40.054;4.110;2023-09-12T01:43:50;101491.88;;;25.72;100.00
73240;BME280;61452;40.054;4.110;2023-09-12T01:48:55;101493.38;;;25.74;100.00
73240;BME280;61452;40.054;4.110;2023-09-12T01:53:58;101500.59;;;25.74;100.00
73240;BME280;61452;40.054;4.110;2023-09-12T01:59:02;101499.78;;;25.73;100.00
73240;BME280;61452;40.054;4.110;2023-09-12T02:04:05;101505.97;;;25.74;100.00
73240;BME280;61452;40.054;4.110;2023-09-12T02:09:10;101508.84;;;25.72;100.00
73240;BME280;61452;40.054;4.110;2023-09-12T02:14:13;101516.06;;;25.72;100.00
73240;BME280;61452;40.054;4.110;2023-09-12T02:19:15;101502.63;;;25.72;100.00
73240;BME280;61452;40.054;4.110;2023-09-12T02:24:17;101517.91;;;25.71;100.00
73240;BME280;61452;40.054;4.110;2023-09-12T02:29:20;101528.50;;;25.73;100.00
73240;BME280;61452;40.054;4.110;2023-09-12T02:34:22;101521.56;;;25.70;100.00
73240;BME280;61452;40.054;4.110;2023-09-12T02:39:24;101522.41;;;25.71;100.00
73240;BME280;61452;40.054;4.110;2023-09-12T02:44:27;101525.81;;;25.73;100.00
73240;BME280;61452;40.054;4.110;2023-09-12T02:49:29;101516.19;;;25.70;100.00
73240;BME280;61452;40.054;4.110;2023-09-12T02:54:31;101514.50;;;25.69;100.00
73240;BME280;61452;40.054;4.110;2023-09-12T02:59:34;101509.13;;;25.69;100.00
73240;BME280;61452;40.054;4.110;2023-09-12T03:04:37;101519.03;;;25.69;100.00
73240;BME280;61452;40.054;4.110;2023-09-12T03:09:39;101513.50;;;25.70;100.00
73240;BME280;61452;40.054;4.110;2023-09-12T03:14:41;101516.19;;;25.70;100.00
73240;BME280;61452;40.054;4.110;2023-09-12T03:19:44;101505.59;;;25.69;100.00
73240;BME280;61452;40.054;4.110;2023-09-12T03:24:46;101510.97;;;25.69;100.00
73240;BME280;61452;40.054;4.110;2023-09-12T03:29:48;101505.78;;;25.67;100.00
73240;BME280;61452;40.054;4.110;2023-09-12T03:34:51;101495.69;;;25.69;100.00
73240;BME280;61452;40.054;4.110;2023-09-12T03:39:53;101504.59;;;25.70;100.00
73240;BME280;61452;40.054;4.110;2023-09-12T03:44:56;101505.59;;;25.69;100.00
73240;BME280;61452;40.054;4.110;2023-09-12T03:49:58;101500.41;;;25.67;100.00
73240;BME280;61452;40.054;4.110;2023-09-12T03:55:00;101511.81;;;25.69;100.00
73240;BME280;61452;40.054;4.110;2023-09-12T04:00:03;101513.84;;;25.67;100.00
73240;BME280;61452;40.054;4.110;2023-09-12T04:05:14;101508.47;;;25.67;100.00
73240;BME280;61452;40.054;4.110;2023-09-12T04:10:18;101509.28;;;25.68;100.00
73240;BME280;61452;40.054;4.110;2023-09-12T04:15:20;101509.28;;;25.68;100.00
73240;BME280;61452;40.054;4.110;2023-09-12T04:20:23;101518.19;;;25.68;100.00
73240;BME280;61452;40.054;4.110;2023-09-12T04:25:25;101516.66;;;25.66;100.00
73240;BME280;61452;40.054;4.110;2023-09-12T04:30:28;101509.47;;;25.66;100.00
73240;BME280;61452;40.054;4.110;2023-09-12T04:35:34;101514.84;;;25.66;100.00
73240;BME280;61452;40.054;4.110;2023-09-12T04:40:36;101515.69;;;25.67;100.00
73240;BME280;61452;40.054;4.110;2023-09-12T04:45:42;101516.53;;;25.67;100.00
73240;BME280;61452;40.054;4.110;2023-09-12T04:50:44;101508.47;;;25.67;100.00
73240;BME280;61452;40.054;4.110;2023-09-12T04:55:47;101518.50;;;25.65;100.00
73240;BME280;61452;40.054;4.110;2023-09-12T05:00:49;101524.59;;;25.67;100.00
73240;BME280;61452;40.054;4.110;2023-09-12T05:05:52;101529.13;;;25.67;100.00
73240;BME280;61452;40.054;4.110;2023-09-12T05:10:54;101525.59;;;25.66;100.00
73240;BME280;61452;40.054;4.110;2023-09-12T05:15:56;101529.13;;;25.67;100.00
73240;BME280;61452;40.054;4.110;2023-09-12T05:21:00;101528.28;;;25.66;100.00
73240;BME280;61452;40.054;4.110;2023-09-12T05:26:02;101531.94;;;25.65;100.00
73240;BME280;61452;40.054;4.110;2023-09-12T05:31:05;101538.31;;;25.64;100.00
73240;BME280;61452;40.054;4.110;2023-09-12T05:36:09;101530.09;;;25.66;100.00
73240;BME280;61452;40.054;4.110;2023-09-12T05:41:11;101534.50;;;25.67;100.00
73240;BME280;61452;40.054;4.110;2023-09-12T05:46:14;101532.78;;;25.66;100.00
73240;BME280;61452;40.054;4.110;2023-09-12T05:51:16;101525.88;;;25.63;100.00
73240;BME280;61452;40.054;4.110;2023-09-12T05:56:19;101529.25;;;25.65;100.00
73240;BME280;61452;40.054;4.110;2023-09-12T06:01:22;101530.78;;;25.68;100.00
73240;BME280;61452;40.054;4.110;2023-09-12T06:06:24;101529.97;;;25.67;100.00
73240;BME280;61452;40.054;4.110;2023-09-12T06:11:27;101543.41;;;25.67;100.00
73240;BME280;61452;40.054;4.110;2023-09-12T06:16:29;101539.88;;;25.67;100.00
73240;BME280;61452;40.054;4.110;2023-09-12T06:21:31;101539.03;;;25.66;100.00
73240;BME280;61452;40.054;4.110;2023-09-12T06:26:34;101543.53;;;25.66;100.00
73240;BME280;61452;40.054;4.110;2023-09-12T06:31:36;101531.09;;;25.65;100.00
73240;BME280;61452;40.054;4.110;2023-09-12T06:36:38;101529.13;;;25.67;100.00
73240;BME280;61452;40.054;4.110;2023-09-12T06:41:41;101527.41;;;25.66;100.00
73240;BME280;61452;40.054;4.110;2023-09-12T06:46:43;101517.53;;;25.66;100.00
73240;BME280;61452;40.054;4.110;2023-09-12T06:51:45;101520.22;;;25.66;100.00
73240;BME280;61452;40.054;4.110;2023-09-12T06:56:50;101518.38;;;25.67;100.00
73240;BME280;61452;40.054;4.110;2023-09-12T07:01:52;101513.84;;;25.67;100.00
73240;BME280;61452;40.054;4.110;2023-09-12T07:06:54;101518.38;;;25.67;100.00
73240;BME280;61452;40.054;4.110;2023-09-12T07:11:57;101524.41;;;25.69;100.00
73240;BME280;61452;40.054;4.110;2023-09-12T07:16:59;101521.72;;;25.69;100.00
73240;BME280;61452;40.054;4.110;2023-09-12T07:22:01;101512.81;;;25.68;100.00
73240;BME280;61452;40.054;4.110;2023-09-12T07:27:04;101516.53;;;25.67;100.00
73240;BME280;61452;40.054;4.110;2023-09-12T07:32:06;101511.81;;;25.69;100.00
73240;BME280;61452;40.054;4.110;2023-09-12T07:37:08;101519.88;;;25.69;100.00
73240;BME280;61452;40.054;4.110;2023-09-12T07:42:10;101526.94;;;25.70;100.00
73240;BME280;61452;40.054;4.110;2023-09-12T07:47:12;101526.09;;;25.70;100.00
73240;BME280;61452;40.054;4.110;2023-09-12T07:52:16;101530.47;;;25.71;100.00
73240;BME280;61452;40.054;4.110;2023-09-12T07:57:18;101534.03;;;25.71;100.00
73240;BME280;61452;40.054;4.110;2023-09-12T08:02:20;101551.00;;;25.72;100.00
73240;BME280;61452;40.054;4.110;2023-09-12T08:07:23;101555.53;;;25.71;100.00
73240;BME280;61452;40.054;4.110;2023-09-12T08:12:27;101552.84;;;25.71;100.00
73240;BME280;61452;40.054;4.110;2023-09-12T08:17:29;101552.13;;;25.69;100.00
73240;BME280;61452;40.054;4.110;2023-09-12T08:22:32;101551.84;;;25.72;100.00
73240;BME280;61452;40.054;4.110;2023-09-12T08:27:34;101549.16;;;25.72;100.00
73240;BME280;61452;40.054;4.110;2023-09-12T08:32:36;101564.28;;;25.73;100.00
73240;BME280;61452;40.054;4.110;2023-09-12T08:37:42;101560.56;;;25.74;100.00
73240;BME280;61452;40.054;4.110;2023-09-12T08:42:45;101549.81;;;25.74;100.00
73240;BME280;61452;40.054;4.110;2023-09-12T08:47:53;101561.41;;;25.75;100.00
73240;BME280;61452;40.054;4.110;2023-09-12T08:52:56;101564.94;;;25.75;100.00
73240;BME280;61452;40.054;4.110;2023-09-12T08:58:08;101565.94;;;25.74;100.00
73240;BME280;61452;40.054;4.110;2023-09-12T09:03:11;101582.78;;;25.76;100.00
73240;BME280;61452;40.054;4.110;2023-09-12T09:08:14;101588.16;;;25.76;100.00
73240;BME280;61452;40.054;4.110;2023-09-12T09:13:17;101589.00;;;25.77;100.00
73240;BME280;61452;40.054;4.110;2023-09-12T09:18:21;101593.53;;;25.76;100.00
73240;BME280;61452;40.054;4.110;2023-09-12T09:23:23;101589.69;;;25.79;100.00
73240;BME280;61452;40.054;4.110;2023-09-12T09:28:25;101585.31;;;25.78;100.00
73240;BME280;61452;40.054;4.110;2023-09-12T09:33:34;101578.09;;;25.78;100.00
73240;BME280;61452;40.054;4.110;2023-09-12T09:38:37;101580.94;;;25.77;100.00
73240;BME280;61452;40.054;4.110;2023-09-12T09:43:39;101587.84;;;25.80;100.00
73240;BME280;61452;40.054;4.110;2023-09-12T09:48:49;101583.31;;;25.80;100.00
73240;BME280;61452;40.054;4.110;2023-09-12T09:53:52;101577.91;;;25.80;100.00
73240;BME280;61452;40.054;4.110;2023-09-12T09:58:59;101569.03;;;25.80;100.00
73240;BME280;61452;40.054;4.110;2023-09-12T10:04:02;101572.53;;;25.80;100.00
73240;BME280;61452;40.054;4.110;2023-09-12T10:09:07;101576.94;;;25.81;100.00
73240;BME280;61452;40.054;4.110;2023-09-12T10:14:12;101568.88;;;25.81;100.00
73240;BME280;61452;40.054;4.110;2023-09-12T10:19:24;101563.50;;;25.81;100.00
73240;BME280;61452;40.054;4.110;2023-09-12T10:24:29;101571.56;;;25.81;100.00
73240;BME280;61452;40.054;4.110;2023-09-12T10:29:33;101568.72;;;25.83;100.00
73240;BME280;61452;40.054;4.110;2023-09-12T10:34:37;101584.84;;;25.83;100.00
73240;BME280;61452;40.054;4.110;2023-09-12T10:39:45;101599.97;;;25.84;100.00
73240;BME280;61452;40.054;4.110;2023-09-12T10:44:48;101598.16;;;25.84;100.00
73240;BME280;61452;40.054;4.110;2023-09-12T10:49:52;101588.25;;;25.85;100.00
73240;BME280;61452;40.054;4.110;2023-09-12T10:54:55;101586.53;;;25.84;100.00
73240;BME280;61452;40.054;4.110;2023-09-12T11:10:29;101595.31;;;25.86;100.00
73240;BME280;61452;40.054;4.110;2023-09-12T11:15:34;101583.72;;;25.85;100.00
73240;BME280;61452;40.054;4.110;2023-09-12T11:26:07;101582.69;;;25.86;100.00
73240;BME280;61452;40.054;4.110;2023-09-12T11:31:24;101590.75;;;25.86;100.00
73240;BME280;61452;40.054;4.110;2023-09-12T11:36:26;101585.22;;;25.88;100.00
73240;BME280;61452;40.054;4.110;2023-09-12T11:41:41;101581.69;;;25.87;100.00
73240;BME280;61452;40.054;4.110;2023-09-12T11:46:43;101580.69;;;25.88;100.00
73240;BME280;61452;40.054;4.110;2023-09-12T11:51:53;101575.31;;;25.88;100.00
73240;BME280;61452;40.054;4.110;2023-09-12T11:56:56;101576.16;;;25.89;100.00
73240;BME280;61452;40.054;4.110;2023-09-12T12:02:06;101583.38;;;25.88;100.00
73240;BME280;61452;40.054;4.110;2023-09-12T12:07:09;101580.69;;;25.88;100.00
73240;BME280;61452;40.054;4.110;2023-09-12T12:12:13;101577.88;;;25.90;100.00
73240;BME280;61452;40.054;4.110;2023-09-12T12:17:16;101570.78;;;25.89;100.00
73240;BME280;61452;40.054;4.110;2023-09-12T12:22:18;101565.41;;;25.89;100.00
73240;BME280;61452;40.054;4.110;2023-09-12T12:27:21;101576.88;;;25.91;100.00
73240;BME280;61452;40.054;4.110;2023-09-12T12:32:23;101565.28;;;25.90;100.00
73240;BME280;61452;40.054;4.110;2023-09-12T12:37:29;101571.50;;;25.91;100.00
73240;BME280;61452;40.054;4.110;2023-09-12T12:42:34;101571.50;;;25.91;100.00
73240;BME280;61452;40.054;4.110;2023-09-12T12:47:58;101577.72;;;25.91;100.00
73240;BME280;61452;40.054;4.110;2023-09-12T12:53:00;101578.56;;;25.92;100.00
73240;BME280;61452;40.054;4.110;2023-09-12T12:58:03;101588.28;;;25.93;100.00
73240;BME280;61452;40.054;4.110;2023-09-12T13:03:05;101582.25;;;25.91;100.00
73240;BME280;61452;40.054;4.110;2023-09-12T13:08:08;101570.50;;;25.92;100.00
73240;BME280;61452;40.054;4.110;2023-09-12T13:13:10;101558.03;;;25.91;100.00
73240;BME280;61452;40.054;4.110;2023-09-12T13:18:13;101558.91;;;25.91;100.00
73240;BME280;61452;40.054;4.110;2023-09-12T13:23:15;101569.47;;;25.93;100.00
73240;BME280;61452;40.054;4.110;2023-09-12T13:28:17;101566.13;;;25.91;100.00
73240;BME280;61452;40.054;4.110;2023-09-12T13:33:19;101576.88;;;25.91;100.00
73240;BME280;61452;40.054;4.110;2023-09-12T13:38:22;101576.88;;;25.91;100.00
73240;BME280;61452;40.054;4.110;2023-09-12T13:43:25;101577.72;;;25.91;100.00
73240;BME280;61452;40.054;4.110;2023-09-12T13:48:27;101561.59;;;25.91;100.00
73240;BME280;61452;40.054;4.110;2023-09-12T13:53:30;101552.53;;;25.92;100.00
73240;BME280;61452;40.054;4.110;2023-09-12T13:58:32;101534.53;;;25.93;100.00
73240;BME280;61452;40.054;4.110;2023-09-12T14:03:46;101515.03;;;25.91;100.00
73240;BME280;61452;40.054;4.110;2023-09-12T14:08:49;101535.38;;;25.93;100.00
73240;BME280;61452;40.054;4.110;2023-09-12T14:13:52;101531.84;;;25.93;100.00
73240;BME280;61452;40.054;4.110;2023-09-12T14:19:04;101537.38;;;25.91;100.00
73240;BME280;61452;40.054;4.110;2023-09-12T14:24:08;101522.09;;;25.92;100.00
73240;BME280;61452;40.054;4.110;2023-09-12T14:29:11;101513.19;;;25.91;100.00
73240;BME280;61452;40.054;4.110;2023-09-12T14:34:13;101512.19;;;25.92;100.00
73240;BME280;61452;40.054;4.110;2023-09-12T14:39:15;101505.66;;;25.95;100.00
73240;BME280;61452;40.054;4.110;2023-09-12T14:44:18;101496.72;;;25.94;100.00
73240;BME280;61452;40.054;4.110;2023-09-12T14:49:20;101486.81;;;25.95;100.00
73240;BME280;61452;40.054;4.110;2023-09-12T14:54:23;101463.81;;;25.92;100.00
73240;BME280;61452;40.054;4.110;2023-09-12T14:59:25;101480.44;;;25.96;100.00
73240;BME280;61452;40.054;4.110;2023-09-12T15:04:27;101490.22;;;25.97;100.00
73240;BME280;61452;40.054;4.110;2023-09-12T15:09:30;101504.81;;;25.94;100.00
73240;BME280;61452;40.054;4.110;2023-09-12T15:14:33;101533.22;;;25.97;100.00
73240;BME280;61452;40.054;4.110;2023-09-12T15:19:35;101516.09;;;25.98;100.00
73240;BME280;61452;40.054;4.110;2023-09-12T15:24:38;101520.63;;;25.97;100.00
73240;BME280;61452;40.054;4.110;2023-09-12T15:29:40;101515.41;;;25.96;100.00
73240;BME280;61452;40.054;4.110;2023-09-12T15:34:42;101505.66;;;25.95;100.00
73240;BME280;61452;40.054;4.110;2023-09-12T15:39:44;101501.13;;;25.95;100.00
73240;BME280;61452;40.054;4.110;2023-09-12T15:44:47;101513.56;;;25.96;100.00
73240;BME280;61452;40.054;4.110;2023-09-12T15:50:02;101529.53;;;25.98;100.00
73240;BME280;61452;40.054;4.110;2023-09-12T15:55:09;101525.00;;;25.98;100.00
73240;BME280;61452;40.054;4.110;2023-09-12T16:00:12;101531.22;;;25.99;100.00
73240;BME280;61452;40.054;4.110;2023-09-12T16:05:14;101523.00;;;26.00;100.00
73240;BME280;61452;40.054;4.110;2023-09-12T16:10:17;101513.22;;;25.99;100.00
73240;BME280;61452;40.054;4.110;2023-09-12T16:15:19;101501.63;;;25.99;100.00
73240;BME280;61452;40.054;4.110;2023-09-12T16:20:21;101487.19;;;26.00;100.00
73240;BME280;61452;40.054;4.110;2023-09-12T16:25:23;101460.31;;;26.00;100.00
73240;BME280;61452;40.054;4.110;2023-09-12T16:30:25;101477.13;;;26.02;100.00
73240;BME280;61452;40.054;4.110;2023-09-12T16:35:27;101508.41;;;26.03;100.00
73240;BME280;61452;40.054;4.110;2023-09-12T16:40:29;101528.06;;;26.03;100.00
73240;BME280;61452;40.054;4.110;2023-09-12T16:45:34;101570.25;;;26.03;100.00
73240;BME280;61452;40.054;4.110;2023-09-12T16:50:36;101630.91;;;26.05;100.00
73240;BME280;61452;40.054;4.110;2023-09-12T16:55:38;101589.91;;;26.03;100.00
73240;BME280;61452;40.054;4.110;2023-09-12T17:00:40;101529.59;;;26.06;100.00
73240;BME280;61452;40.054;4.110;2023-09-12T17:05:42;101527.06;;;26.04;100.00
73240;BME280;61452;40.054;4.110;2023-09-12T17:10:44;101546.06;;;26.03;100.00
73240;BME280;61452;40.054;4.110;2023-09-12T17:15:47;101576.47;;;26.03;100.00
73240;BME280;61452;40.054;4.110;2023-09-12T17:20:49;101590.78;;;26.04;100.00
73240;BME280;61452;40.054;4.110;2023-09-12T17:25:51;101592.28;;;26.06;100.00
73240;BME280;61452;40.054;4.110;2023-09-12T17:30:53;101595.81;;;26.07;100.00
73240;BME280;61452;40.054;4.110;2023-09-12T17:35:56;101603.19;;;26.05;100.00
73240;BME280;61452;40.054;4.110;2023-09-12T17:40:58;101581.66;;;26.05;100.00
73240;BME280;61452;40.054;4.110;2023-09-12T17:46:00;101575.47;;;26.04;100.00
73240;BME280;61452;40.054;4.110;2023-09-12T17:51:11;101568.22;;;26.05;100.00
73240;BME280;61452;40.054;4.110;2023-09-12T17:56:14;101560.34;;;26.03;100.00
73240;BME280;61452;40.054;4.110;2023-09-12T18:01:17;101561.00;;;26.05;100.00
73240;BME280;61452;40.054;4.110;2023-09-12T18:06:19;101558.50;;;26.04;100.00
73240;BME280;61452;40.054;4.110;2023-09-12T18:11:22;101578.97;;;26.05;100.00
73240;BME280;61452;40.054;4.110;2023-09-12T18:16:24;101572.78;;;26.04;100.00
73240;BME280;61452;40.054;4.110;2023-09-12T18:21:30;101576.47;;;26.03;100.00
73240;BME280;61452;40.054;4.110;2023-09-12T18:26:32;101537.84;;;26.04;100.00
73240;BME280;61452;40.054;4.110;2023-09-12T18:31:34;101540.19;;;26.07;100.00
73240;BME280;61452;40.054;4.110;2023-09-12T18:36:43;101587.06;;;26.05;100.00
73240;BME280;61452;40.054;4.110;2023-09-12T18:41:46;101569.06;;;26.05;100.00
73240;BME280;61452;40.054;4.110;2023-09-12T18:46:48;101596.66;;;26.07;100.00
73240;BME280;61452;40.054;4.110;2023-09-12T18:51:50;101619.16;;;26.06;100.00
73240;BME280;61452;40.054;4.110;2023-09-12T18:56:53;101638.13;;;26.05;100.00
73240;BME280;61452;40.054;4.110;2023-09-12T19:01:55;101615.50;;;26.07;100.00
73240;BME280;61452;40.054;4.110;2023-09-12T19:06:57;101683.56;;;26.08;100.00
73240;BME280;61452;40.054;4.110;2023-09-12T19:11:59;101662.19;;;26.06;100.00
73240;BME280;61452;40.054;4.110;2023-09-12T19:17:02;101631.94;;;26.04;100.00
73240;BME280;61452;40.054;4.110;2023-09-12T19:22:04;101621.47;;;26.01;100.00
73240;BME280;61452;40.054;4.110;2023-09-12T19:27:07;101607.91;;;26.03;100.00
73240;BME280;61452;40.054;4.110;2023-09-12T19:32:09;101670.41;;;26.05;100.00
73240;BME280;61452;40.054;4.110;2023-09-12T19:37:11;101723.91;;;26.08;100.00
73240;BME280;61452;40.054;4.110;2023-09-12T19:42:14;101645.91;;;26.08;100.00
73240;BME280;61452;40.054;4.110;2023-09-12T19:47:17;101649.44;;;26.08;100.00
73240;BME280;61452;40.054;4.110;2023-09-12T19:52:20;101674.78;;;26.06;100.00
73240;BME280;61452;40.054;4.110;2023-09-12T19:57:22;101672.94;;;26.06;100.00
73240;BME280;61452;40.054;4.110;2023-09-12T20:02:27;101646.91;;;26.07;100.00
73240;BME280;61452;40.054;4.110;2023-09-12T20:07:29;101673.66;;;26.08;100.00
73240;BME280;61452;40.054;4.110;2023-09-12T20:12:31;101647.91;;;26.06;100.00
73240;BME280;61452;40.054;4.110;2023-09-12T20:17:34;101642.53;;;26.06;100.00
73240;BME280;61452;40.054;4.110;2023-09-12T20:22:36;101637.00;;;26.07;100.00
73240;BME280;61452;40.054;4.110;2023-09-12T20:27:38;101613.28;;;26.03;100.00
73240;BME280;61452;40.054;4.110;2023-09-12T20:32:43;101619.31;;;26.05;100.00
73240;BME280;61452;40.054;4.110;2023-09-12T20:37:59;101641.53;;;26.07;100.00
73240;BME280;61452;40.054;4.110;2023-09-12T20:43:01;101665.72;;;26.07;100.00
73240;BME280;61452;40.054;4.110;2023-09-12T20:48:04;101655.81;;;26.07;100.00
73240;BME280;61452;40.054;4.110;2023-09-12T20:53:06;101638.00;;;26.06;100.00
73240;BME280;61452;40.054;4.110;2023-09-12T20:58:10;101655.31;;;26.04;100.00
73240;BME280;61452;40.054;4.110;2023-09-12T21:03:14;101648.75;;;26.06;100.00
73240;BME280;61452;40.054;4.110;2023-09-12T21:08:16;101641.38;;;26.08;100.00
73240;BME280;61452;40.054;4.110;2023-09-12T21:13:18;101635.16;;;26.08;100.00
73240;BME280;61452;40.054;4.110;2023-09-12T21:18:20;101631.63;;;26.07;100.00
73240;BME280;61452;40.054;4.110;2023-09-12T21:23:23;101631.78;;;26.06;100.00
73240;BME280;61452;40.054;4.110;2023-09-12T21:28:25;101634.63;;;26.04;100.00
73240;BME280;61452;40.054;4.110;2023-09-12T21:33:27;101644.38;;;26.05;100.00
73240;BME280;61452;40.054;4.110;2023-09-12T21:38:29;101638.00;;;26.06;100.00
73240;BME280;61452;40.054;4.110;2023-09-12T21:43:31;101655.69;;;26.09;100.00
73240;BME280;61452;40.054;4.110;2023-09-12T21:48:34;101665.25;;;26.11;100.00
73240;BME280;61452;40.054;4.110;2023-09-12T21:53:36;101672.47;;;26.11;100.00
73240;BME280;61452;40.054;4.110;2023-09-12T21:58:38;101673.50;;;26.10;100.00
73240;BME280;61452;40.054;4.110;2023-09-12T22:03:40;101666.13;;;26.12;100.00
73240;BME280;61452;40.054;4.110;2023-09-12T22:08:43;101670.66;;;26.11;100.00
73240;BME280;61452;40.054;4.110;2023-09-12T22:13:45;101669.66;;;26.12;100.00
73240;BME280;61452;40.054;4.110;2023-09-12T22:18:48;101668.81;;;26.12;100.00
73240;BME280;61452;40.054;4.110;2023-09-12T22:23:50;101667.94;;;26.11;100.00
73240;BME280;61452;40.054;4.110;2023-09-12T22:28:53;101668.13;;;26.10;100.00
73240;BME280;61452;40.054;4.110;2023-09-12T22:33:55;101670.81;;;26.10;100.00
73240;BME280;61452;40.054;4.110;2023-09-12T22:38:57;101679.75;;;26.10;100.00
73240;BME280;61452;40.054;4.110;2023-09-12T22:44:00;101669.97;;;26.09;100.00
73240;BME280;61452;40.054;4.110;2023-09-12T22:49:03;101669.97;;;26.09;100.00
73240;BME280;61452;40.054;4.110;2023-09-12T22:54:05;101680.56;;;26.11;100.00
73240;BME280;61452;40.054;4.110;2023-09-12T22:59:08;101676.50;;;26.07;100.00
73240;BME280;61452;40.054;4.110;2023-09-12T23:04:10;101676.19;;;26.10;100.00
73240;BME280;61452;40.054;4.110;2023-09-12T23:09:12;101655.69;;;26.09;100.00
73240;BME280;61452;40.054;4.110;2023-09-12T23:14:14;101654.50;;;26.11;100.00
73240;BME280;61452;40.054;4.110;2023-09-12T23:19:17;101662.75;;;26.10;100.00
73240;BME280;61452;40.054;4.110;2023-09-12T23:24:19;101670.97;;;26.08;100.00
73240;BME280;61452;40.054;4.110;2023-09-12T23:29:21;101678.03;;;26.09;100.00
73240;BME280;61452;40.054;4.110;2023-09-12T23:34:23;101685.94;;;26.11;100.00
73240;BME280;61452;40.054;4.110;2023-09-12T23:39:25;101681.59;;;26.10;100.00
73240;BME280;61452;40.054;4.110;2023-09-12T23:44:28;101671.81;;;26.09;100.00
73240;BME280;61452;40.054;4.110;2023-09-12T23:49:31;101687.81;;;26.10;100.00
73240;BME280;61452;40.054;4.110;2023-09-12T23:54:34;101754.00;;;26.11;100.00
73240;BME280;61452;40.054;4.110;2023-09-12T23:59:36;101829.75;;;26.16;100.00
